sensor_id;sensor_type;location;lat;lon;timestamp;P1;durP1;ratioP1;P2;durP2;ratioP2
9076;SDS011;4574;51.072;17.174;2022-07-17T00:00:17;64.57;;;41.63;;
9076;SDS011;4574;51.072;17.174;2022-07-17T00:02:47;243.13;;;149.53;;
9076;SDS011;4574;51.072;17.174;2022-07-17T00:05:16;151.10;;;101.17;;
9076;SDS011;4574;51.072;17.174;2022-07-17T00:07:45;79.27;;;53.50;;
9076;SDS011;4574;51.072;17.174;2022-07-17T00:10:16;62.30;;;38.90;;
9076;SDS011;4574;51.072;17.174;2022-07-17T00:12:45;77.67;;;53.10;;
9076;SDS011;4574;51.072;17.174;2022-07-17T00:15:13;214.73;;;144.80;;
9076;SDS011;4574;51.072;17.174;2022-07-17T00:17:42;221.27;;;146.30;;
9076;SDS011;4574;51.072;17.174;2022-07-17T00:20:12;113.40;;;69.43;;
9076;SDS011;4574;51.072;17.174;2022-07-17T00:22:40;21.70;;;11.67;;
9076;SDS011;4574;51.072;17.174;2022-07-17T00:25:10;7.43;;;4.30;;
9076;SDS011;4574;51.072;17.174;2022-07-17T00:27:39;12.47;;;7.90;;
9076;SDS011;4574;51.072;17.174;2022-07-17T00:30:07;9.00;;;4.50;;
9076;SDS011;4574;51.072;17.174;2022-07-17T00:32:36;7.03;;;2.30;;
9076;SDS011;4574;51.072;17.174;2022-07-17T00:35:05;15.07;;;6.47;;
9076;SDS011;4574;51.072;17.174;2022-07-17T00:37:39;11.77;;;6.23;;
9076;SDS011;4574;51.072;17.174;2022-07-17T00:40:09;24.17;;;11.47;;
9076;SDS011;4574;51.072;17.174;2022-07-17T00:42:41;23.53;;;12.93;;
9076;SDS011;4574;51.072;17.174;2022-07-17T00:45:11;6.47;;;3.60;;
9076;SDS011;4574;51.072;17.174;2022-07-17T00:47:52;13.33;;;7.30;;
9076;SDS011;4574;51.072;17.174;2022-07-17T00:50:22;23.67;;;13.73;;
9076;SDS011;4574;51.072;17.174;2022-07-17T00:52:53;32.73;;;20.33;;
9076;SDS011;4574;51.072;17.174;2022-07-17T00:55:22;10.47;;;5.43;;
9076;SDS011;4574;51.072;17.174;2022-07-17T00:58:10;9.97;;;4.97;;
9076;SDS011;4574;51.072;17.174;2022-07-17T01:00:40;10.37;;;6.27;;
9076;SDS011;4574;51.072;17.174;2022-07-17T01:03:09;12.73;;;7.73;;
9076;SDS011;4574;51.072;17.174;2022-07-17T01:05:37;29.33;;;17.40;;
9076;SDS011;4574;51.072;17.174;2022-07-17T01:08:08;23.30;;;14.00;;
9076;SDS011;4574;51.072;17.174;2022-07-17T01:10:37;19.53;;;11.47;;
9076;SDS011;4574;51.072;17.174;2022-07-17T01:13:06;10.00;;;7.07;;
9076;SDS011;4574;51.072;17.174;2022-07-17T01:15:36;9.90;;;6.87;;
9076;SDS011;4574;51.072;17.174;2022-07-17T01:18:07;11.37;;;6.77;;
9076;SDS011;4574;51.072;17.174;2022-07-17T01:20:37;21.70;;;14.87;;
9076;SDS011;4574;51.072;17.174;2022-07-17T01:23:09;21.77;;;12.83;;
9076;SDS011;4574;51.072;17.174;2022-07-17T01:25:40;10.33;;;3.03;;
9076;SDS011;4574;51.072;17.174;2022-07-17T01:28:08;1.97;;;1.37;;
9076;SDS011;4574;51.072;17.174;2022-07-17T01:30:44;6.57;;;1.70;;
9076;SDS011;4574;51.072;17.174;2022-07-17T01:33:14;3.47;;;1.70;;
9076;SDS011;4574;51.072;17.174;2022-07-17T01:35:43;4.17;;;1.47;;
9076;SDS011;4574;51.072;17.174;2022-07-17T01:38:14;6.23;;;1.83;;
9076;SDS011;4574;51.072;17.174;2022-07-17T01:40:42;2.50;;;1.63;;
9076;SDS011;4574;51.072;17.174;2022-07-17T01:43:11;4.07;;;1.53;;
9076;SDS011;4574;51.072;17.174;2022-07-17T01:45:40;3.50;;;1.47;;
9076;SDS011;4574;51.072;17.174;2022-07-17T01:48:08;4.13;;;1.87;;
9076;SDS011;4574;51.072;17.174;2022-07-17T01:50:37;3.33;;;1.50;;
9076;SDS011;4574;51.072;17.174;2022-07-17T01:53:05;2.73;;;1.50;;
9076;SDS011;4574;51.072;17.174;2022-07-17T01:55:35;2.33;;;1.67;;
9076;SDS011;4574;51.072;17.174;2022-07-17T01:58:04;3.20;;;1.80;;
9076;SDS011;4574;51.072;17.174;2022-07-17T02:00:33;3.87;;;1.63;;
9076;SDS011;4574;51.072;17.174;2022-07-17T02:03:02;3.27;;;1.70;;
9076;SDS011;4574;51.072;17.174;2022-07-17T02:05:30;3.83;;;1.60;;
9076;SDS011;4574;51.072;17.174;2022-07-17T02:07:59;2.67;;;1.80;;
9076;SDS011;4574;51.072;17.174;2022-07-17T02:10:28;2.90;;;1.60;;
9076;SDS011;4574;51.072;17.174;2022-07-17T02:12:58;3.97;;;1.93;;
9076;SDS011;4574;51.072;17.174;2022-07-17T02:15:27;3.53;;;1.70;;
9076;SDS011;4574;51.072;17.174;2022-07-17T02:17:56;3.30;;;1.97;;
9076;SDS011;4574;51.072;17.174;2022-07-17T02:20:25;7.67;;;1.60;;
9076;SDS011;4574;51.072;17.174;2022-07-17T02:22:53;3.73;;;1.60;;
9076;SDS011;4574;51.072;17.174;2022-07-17T02:25:22;5.90;;;1.57;;
9076;SDS011;4574;51.072;17.174;2022-07-17T02:27:51;3.57;;;1.60;;
9076;SDS011;4574;51.072;17.174;2022-07-17T02:30:21;5.40;;;1.93;;
9076;SDS011;4574;51.072;17.174;2022-07-17T02:32:49;4.50;;;1.53;;
9076;SDS011;4574;51.072;17.174;2022-07-17T02:35:18;3.10;;;1.73;;
9076;SDS011;4574;51.072;17.174;2022-07-17T02:37:46;2.80;;;1.60;;
9076;SDS011;4574;51.072;17.174;2022-07-17T02:40:15;4.00;;;1.83;;
9076;SDS011;4574;51.072;17.174;2022-07-17T02:42:45;2.67;;;1.63;;
9076;SDS011;4574;51.072;17.174;2022-07-17T02:45:14;5.10;;;1.90;;
9076;SDS011;4574;51.072;17.174;2022-07-17T02:47:44;3.27;;;1.90;;
9076;SDS011;4574;51.072;17.174;2022-07-17T02:50:12;4.00;;;1.90;;
9076;SDS011;4574;51.072;17.174;2022-07-17T02:52:41;2.60;;;1.43;;
9076;SDS011;4574;51.072;17.174;2022-07-17T02:55:10;3.80;;;1.53;;
9076;SDS011;4574;51.072;17.174;2022-07-17T02:57:39;1.70;;;1.47;;
9076;SDS011;4574;51.072;17.174;2022-07-17T03:00:09;4.80;;;1.80;;
9076;SDS011;4574;51.072;17.174;2022-07-17T03:02:39;4.50;;;1.70;;
9076;SDS011;4574;51.072;17.174;2022-07-17T03:05:09;5.10;;;1.80;;
9076;SDS011;4574;51.072;17.174;2022-07-17T03:07:38;7.27;;;1.80;;
9076;SDS011;4574;51.072;17.174;2022-07-17T03:10:08;5.70;;;1.70;;
9076;SDS011;4574;51.072;17.174;2022-07-17T03:12:37;3.33;;;2.27;;
9076;SDS011;4574;51.072;17.174;2022-07-17T03:15:06;4.97;;;1.90;;
9076;SDS011;4574;51.072;17.174;2022-07-17T03:17:37;5.40;;;1.73;;
9076;SDS011;4574;51.072;17.174;2022-07-17T03:20:06;6.30;;;2.10;;
9076;SDS011;4574;51.072;17.174;2022-07-17T03:22:38;2.63;;;1.50;;
9076;SDS011;4574;51.072;17.174;2022-07-17T03:25:07;3.90;;;1.70;;
9076;SDS011;4574;51.072;17.174;2022-07-17T03:27:36;4.63;;;1.90;;
9076;SDS011;4574;51.072;17.174;2022-07-17T03:30:06;1.93;;;1.60;;
9076;SDS011;4574;51.072;17.174;2022-07-17T03:32:36;2.70;;;1.83;;
9076;SDS011;4574;51.072;17.174;2022-07-17T03:35:05;2.33;;;1.70;;
9076;SDS011;4574;51.072;17.174;2022-07-17T03:37:36;6.37;;;1.70;;
9076;SDS011;4574;51.072;17.174;2022-07-17T03:40:05;3.93;;;1.87;;
9076;SDS011;4574;51.072;17.174;2022-07-17T03:42:35;4.67;;;1.80;;
9076;SDS011;4574;51.072;17.174;2022-07-17T03:45:05;3.23;;;1.57;;
9076;SDS011;4574;51.072;17.174;2022-07-17T03:47:35;2.70;;;1.60;;
9076;SDS011;4574;51.072;17.174;2022-07-17T03:50:04;5.13;;;1.67;;
9076;SDS011;4574;51.072;17.174;2022-07-17T03:52:33;3.93;;;2.10;;
9076;SDS011;4574;51.072;17.174;2022-07-17T03:55:03;4.67;;;2.00;;
9076;SDS011;4574;51.072;17.174;2022-07-17T03:57:31;4.70;;;1.70;;
9076;SDS011;4574;51.072;17.174;2022-07-17T04:00:00;4.87;;;2.00;;
9076;SDS011;4574;51.072;17.174;2022-07-17T04:02:29;3.43;;;1.40;;
9076;SDS011;4574;51.072;17.174;2022-07-17T04:04:58;6.97;;;2.03;;
9076;SDS011;4574;51.072;17.174;2022-07-17T04:07:26;2.90;;;1.43;;
9076;SDS011;4574;51.072;17.174;2022-07-17T04:09:55;4.57;;;1.50;;
9076;SDS011;4574;51.072;17.174;2022-07-17T04:12:26;3.23;;;1.50;;
9076;SDS011;4574;51.072;17.174;2022-07-17T04:14:55;4.57;;;1.80;;
9076;SDS011;4574;51.072;17.174;2022-07-17T04:17:24;2.53;;;1.33;;
9076;SDS011;4574;51.072;17.174;2022-07-17T04:19:53;3.20;;;1.77;;
9076;SDS011;4574;51.072;17.174;2022-07-17T04:22:22;3.57;;;1.70;;
9076;SDS011;4574;51.072;17.174;2022-07-17T04:24:51;3.17;;;1.60;;
9076;SDS011;4574;51.072;17.174;2022-07-17T04:27:21;2.23;;;1.53;;
9076;SDS011;4574;51.072;17.174;2022-07-17T04:30:00;2.73;;;1.47;;
9076;SDS011;4574;51.072;17.174;2022-07-17T04:32:29;4.67;;;1.60;;
9076;SDS011;4574;51.072;17.174;2022-07-17T04:34:57;5.63;;;1.60;;
9076;SDS011;4574;51.072;17.174;2022-07-17T04:37:26;9.80;;;1.97;;
9076;SDS011;4574;51.072;17.174;2022-07-17T04:39:54;6.37;;;1.90;;
9076;SDS011;4574;51.072;17.174;2022-07-17T04:42:24;5.27;;;1.60;;
9076;SDS011;4574;51.072;17.174;2022-07-17T04:44:52;5.57;;;1.87;;
9076;SDS011;4574;51.072;17.174;2022-07-17T04:47:23;8.50;;;1.77;;
9076;SDS011;4574;51.072;17.174;2022-07-17T04:49:51;4.83;;;1.70;;
9076;SDS011;4574;51.072;17.174;2022-07-17T04:52:20;4.40;;;1.60;;
9076;SDS011;4574;51.072;17.174;2022-07-17T04:54:48;3.07;;;1.50;;
9076;SDS011;4574;51.072;17.174;2022-07-17T04:57:17;6.60;;;1.73;;
9076;SDS011;4574;51.072;17.174;2022-07-17T04:59:45;4.33;;;1.47;;
9076;SDS011;4574;51.072;17.174;2022-07-17T05:02:14;5.03;;;1.60;;
9076;SDS011;4574;51.072;17.174;2022-07-17T05:04:44;4.20;;;1.50;;
9076;SDS011;4574;51.072;17.174;2022-07-17T05:07:13;6.27;;;1.50;;
9076;SDS011;4574;51.072;17.174;2022-07-17T05:09:42;4.87;;;1.47;;
9076;SDS011;4574;51.072;17.174;2022-07-17T05:12:10;5.80;;;1.73;;
9076;SDS011;4574;51.072;17.174;2022-07-17T05:14:38;2.77;;;1.40;;
9076;SDS011;4574;51.072;17.174;2022-07-17T05:17:07;5.73;;;2.13;;
9076;SDS011;4574;51.072;17.174;2022-07-17T05:19:36;3.47;;;1.20;;
9076;SDS011;4574;51.072;17.174;2022-07-17T05:22:06;3.20;;;1.40;;
9076;SDS011;4574;51.072;17.174;2022-07-17T05:24:35;3.13;;;1.47;;
9076;SDS011;4574;51.072;17.174;2022-07-17T05:27:03;10.47;;;1.73;;
9076;SDS011;4574;51.072;17.174;2022-07-17T05:29:32;5.63;;;1.70;;
9076;SDS011;4574;51.072;17.174;2022-07-17T05:32:01;5.70;;;1.47;;
9076;SDS011;4574;51.072;17.174;2022-07-17T05:34:29;5.33;;;1.50;;
9076;SDS011;4574;51.072;17.174;2022-07-17T05:36:58;4.73;;;1.60;;
9076;SDS011;4574;51.072;17.174;2022-07-17T05:39:28;2.37;;;1.43;;
9076;SDS011;4574;51.072;17.174;2022-07-17T05:41:56;5.60;;;1.70;;
9076;SDS011;4574;51.072;17.174;2022-07-17T05:44:25;5.90;;;1.33;;
9076;SDS011;4574;51.072;17.174;2022-07-17T05:46:53;4.43;;;1.50;;
9076;SDS011;4574;51.072;17.174;2022-07-17T05:49:22;3.90;;;1.40;;
9076;SDS011;4574;51.072;17.174;2022-07-17T05:51:51;3.17;;;1.27;;
9076;SDS011;4574;51.072;17.174;2022-07-17T05:54:19;2.47;;;1.30;;
9076;SDS011;4574;51.072;17.174;2022-07-17T05:56:49;5.03;;;1.40;;
9076;SDS011;4574;51.072;17.174;2022-07-17T05:59:18;3.80;;;1.87;;
9076;SDS011;4574;51.072;17.174;2022-07-17T06:01:47;2.13;;;1.30;;
9076;SDS011;4574;51.072;17.174;2022-07-17T06:04:15;3.03;;;1.17;;
9076;SDS011;4574;51.072;17.174;2022-07-17T06:06:44;4.50;;;1.43;;
9076;SDS011;4574;51.072;17.174;2022-07-17T06:09:13;1.93;;;1.23;;
9076;SDS011;4574;51.072;17.174;2022-07-17T06:11:41;4.47;;;1.60;;
9076;SDS011;4574;51.072;17.174;2022-07-17T06:14:12;4.80;;;1.73;;
9076;SDS011;4574;51.072;17.174;2022-07-17T06:16:41;4.13;;;1.43;;
9076;SDS011;4574;51.072;17.174;2022-07-17T06:19:09;4.97;;;1.57;;
9076;SDS011;4574;51.072;17.174;2022-07-17T06:21:38;3.03;;;1.30;;
9076;SDS011;4574;51.072;17.174;2022-07-17T06:24:06;4.87;;;1.53;;
9076;SDS011;4574;51.072;17.174;2022-07-17T06:26:35;3.07;;;1.30;;
9076;SDS011;4574;51.072;17.174;2022-07-17T06:29:04;3.57;;;1.33;;
9076;SDS011;4574;51.072;17.174;2022-07-17T06:31:34;4.60;;;1.70;;
9076;SDS011;4574;51.072;17.174;2022-07-17T06:34:03;3.37;;;1.90;;
9076;SDS011;4574;51.072;17.174;2022-07-17T06:36:32;5.40;;;1.40;;
9076;SDS011;4574;51.072;17.174;2022-07-17T06:39:00;8.57;;;1.57;;
9076;SDS011;4574;51.072;17.174;2022-07-17T06:41:29;3.27;;;1.10;;
9076;SDS011;4574;51.072;17.174;2022-07-17T06:43:58;5.90;;;1.70;;
9076;SDS011;4574;51.072;17.174;2022-07-17T06:46:26;4.40;;;2.53;;
9076;SDS011;4574;51.072;17.174;2022-07-17T06:48:56;3.73;;;2.10;;
9076;SDS011;4574;51.072;17.174;2022-07-17T06:51:25;6.23;;;1.80;;
9076;SDS011;4574;51.072;17.174;2022-07-17T06:53:54;4.97;;;1.77;;
9076;SDS011;4574;51.072;17.174;2022-07-17T06:56:22;5.67;;;1.60;;
9076;SDS011;4574;51.072;17.174;2022-07-17T06:58:51;9.43;;;2.77;;
9076;SDS011;4574;51.072;17.174;2022-07-17T07:01:19;3.13;;;1.80;;
9076;SDS011;4574;51.072;17.174;2022-07-17T07:03:48;3.57;;;1.63;;
9076;SDS011;4574;51.072;17.174;2022-07-17T07:06:18;5.43;;;2.70;;
9076;SDS011;4574;51.072;17.174;2022-07-17T07:08:46;7.03;;;1.77;;
9076;SDS011;4574;51.072;17.174;2022-07-17T07:11:15;2.87;;;1.40;;
9076;SDS011;4574;51.072;17.174;2022-07-17T07:13:43;4.73;;;1.30;;
9076;SDS011;4574;51.072;17.174;2022-07-17T07:16:12;4.30;;;1.40;;
9076;SDS011;4574;51.072;17.174;2022-07-17T07:18:41;4.77;;;2.13;;
9076;SDS011;4574;51.072;17.174;2022-07-17T07:21:10;6.23;;;1.70;;
9076;SDS011;4574;51.072;17.174;2022-07-17T07:23:39;4.17;;;1.33;;
9076;SDS011;4574;51.072;17.174;2022-07-17T07:26:08;6.07;;;1.20;;
9076;SDS011;4574;51.072;17.174;2022-07-17T07:28:37;4.20;;;1.60;;
9076;SDS011;4574;51.072;17.174;2022-07-17T07:31:05;3.37;;;1.53;;
9076;SDS011;4574;51.072;17.174;2022-07-17T07:33:34;7.20;;;1.67;;
9076;SDS011;4574;51.072;17.174;2022-07-17T07:36:03;7.50;;;1.77;;
9076;SDS011;4574;51.072;17.174;2022-07-17T07:38:32;3.13;;;1.20;;
9076;SDS011;4574;51.072;17.174;2022-07-17T07:41:05;5.00;;;1.67;;
9076;SDS011;4574;51.072;17.174;2022-07-17T07:43:34;8.03;;;2.03;;
9076;SDS011;4574;51.072;17.174;2022-07-17T07:46:03;2.33;;;1.27;;
9076;SDS011;4574;51.072;17.174;2022-07-17T07:48:32;4.40;;;1.60;;
9076;SDS011;4574;51.072;17.174;2022-07-17T07:51:01;4.07;;;1.47;;
9076;SDS011;4574;51.072;17.174;2022-07-17T07:53:30;5.70;;;1.37;;
9076;SDS011;4574;51.072;17.174;2022-07-17T07:55:58;5.30;;;1.43;;
9076;SDS011;4574;51.072;17.174;2022-07-17T07:58:28;5.87;;;1.20;;
9076;SDS011;4574;51.072;17.174;2022-07-17T08:00:57;5.10;;;1.07;;
9076;SDS011;4574;51.072;17.174;2022-07-17T08:03:26;4.30;;;1.50;;
9076;SDS011;4574;51.072;17.174;2022-07-17T08:05:54;3.60;;;1.20;;
9076;SDS011;4574;51.072;17.174;2022-07-17T08:08:23;6.43;;;1.20;;
9076;SDS011;4574;51.072;17.174;2022-07-17T08:10:51;7.87;;;1.47;;
9076;SDS011;4574;51.072;17.174;2022-07-17T08:13:20;2.13;;;1.20;;
9076;SDS011;4574;51.072;17.174;2022-07-17T08:15:50;5.67;;;1.37;;
9076;SDS011;4574;51.072;17.174;2022-07-17T08:18:19;2.30;;;1.03;;
9076;SDS011;4574;51.072;17.174;2022-07-17T08:20:48;4.23;;;1.30;;
9076;SDS011;4574;51.072;17.174;2022-07-17T08:23:16;4.50;;;1.43;;
9076;SDS011;4574;51.072;17.174;2022-07-17T08:25:46;4.00;;;1.50;;
9076;SDS011;4574;51.072;17.174;2022-07-17T08:28:22;26.63;;;11.80;;
9076;SDS011;4574;51.072;17.174;2022-07-17T08:30:53;8.20;;;2.93;;
9076;SDS011;4574;51.072;17.174;2022-07-17T08:33:22;32.20;;;17.53;;
9076;SDS011;4574;51.072;17.174;2022-07-17T08:35:51;3.83;;;2.10;;
9076;SDS011;4574;51.072;17.174;2022-07-17T08:38:20;11.07;;;5.10;;
9076;SDS011;4574;51.072;17.174;2022-07-17T08:40:49;7.10;;;3.63;;
9076;SDS011;4574;51.072;17.174;2022-07-17T08:43:20;20.00;;;11.27;;
9076;SDS011;4574;51.072;17.174;2022-07-17T08:45:49;4.57;;;1.63;;
9076;SDS011;4574;51.072;17.174;2022-07-17T08:48:20;7.67;;;1.30;;
9076;SDS011;4574;51.072;17.174;2022-07-17T08:50:48;2.60;;;0.87;;
9076;SDS011;4574;51.072;17.174;2022-07-17T08:53:17;3.40;;;1.43;;
9076;SDS011;4574;51.072;17.174;2022-07-17T08:55:45;5.23;;;1.30;;
9076;SDS011;4574;51.072;17.174;2022-07-17T08:58:14;5.80;;;1.30;;
9076;SDS011;4574;51.072;17.174;2022-07-17T09:00:43;2.83;;;1.07;;
9076;SDS011;4574;51.072;17.174;2022-07-17T09:03:13;4.77;;;1.90;;
9076;SDS011;4574;51.072;17.174;2022-07-17T09:05:44;4.37;;;1.00;;
9076;SDS011;4574;51.072;17.174;2022-07-17T09:08:16;3.00;;;1.00;;
9076;SDS011;4574;51.072;17.174;2022-07-17T09:10:46;2.60;;;0.93;;
9076;SDS011;4574;51.072;17.174;2022-07-17T09:13:16;11.97;;;4.20;;
9076;SDS011;4574;51.072;17.174;2022-07-17T09:15:50;5.27;;;1.53;;
9076;SDS011;4574;51.072;17.174;2022-07-17T09:18:20;10.33;;;5.13;;
9076;SDS011;4574;51.072;17.174;2022-07-17T09:20:50;9.40;;;4.17;;
9076;SDS011;4574;51.072;17.174;2022-07-17T09:23:21;10.57;;;5.30;;
9076;SDS011;4574;51.072;17.174;2022-07-17T09:25:52;13.97;;;3.50;;
9076;SDS011;4574;51.072;17.174;2022-07-17T09:28:23;7.47;;;2.97;;
9076;SDS011;4574;51.072;17.174;2022-07-17T09:30:52;13.00;;;5.37;;
9076;SDS011;4574;51.072;17.174;2022-07-17T09:33:22;13.27;;;5.73;;
9076;SDS011;4574;51.072;17.174;2022-07-17T09:35:57;8.93;;;4.97;;
9076;SDS011;4574;51.072;17.174;2022-07-17T09:38:37;7.50;;;3.10;;
9076;SDS011;4574;51.072;17.174;2022-07-17T09:41:07;13.40;;;7.07;;
9076;SDS011;4574;51.072;17.174;2022-07-17T09:43:40;13.03;;;6.73;;
9076;SDS011;4574;51.072;17.174;2022-07-17T09:46:13;7.87;;;4.63;;
9076;SDS011;4574;51.072;17.174;2022-07-17T09:48:44;5.47;;;1.97;;
9076;SDS011;4574;51.072;17.174;2022-07-17T09:51:20;8.03;;;3.77;;
9076;SDS011;4574;51.072;17.174;2022-07-17T09:53:52;14.90;;;7.77;;
9076;SDS011;4574;51.072;17.174;2022-07-17T09:56:23;8.27;;;2.77;;
9076;SDS011;4574;51.072;17.174;2022-07-17T09:58:53;3.13;;;1.40;;
9076;SDS011;4574;51.072;17.174;2022-07-17T10:01:24;6.60;;;1.67;;
9076;SDS011;4574;51.072;17.174;2022-07-17T10:03:53;5.47;;;2.67;;
9076;SDS011;4574;51.072;17.174;2022-07-17T10:06:24;5.27;;;1.60;;
9076;SDS011;4574;51.072;17.174;2022-07-17T10:08:58;7.50;;;2.77;;
9076;SDS011;4574;51.072;17.174;2022-07-17T10:11:28;6.70;;;2.40;;
9076;SDS011;4574;51.072;17.174;2022-07-17T10:14:01;4.67;;;2.03;;
9076;SDS011;4574;51.072;17.174;2022-07-17T10:16:33;2.87;;;1.30;;
9076;SDS011;4574;51.072;17.174;2022-07-17T10:19:13;3.67;;;1.30;;
9076;SDS011;4574;51.072;17.174;2022-07-17T10:21:52;5.63;;;1.50;;
9076;SDS011;4574;51.072;17.174;2022-07-17T10:24:23;7.53;;;1.70;;
9076;SDS011;4574;51.072;17.174;2022-07-17T10:26:54;3.20;;;1.40;;
9076;SDS011;4574;51.072;17.174;2022-07-17T10:29:25;6.07;;;1.87;;
9076;SDS011;4574;51.072;17.174;2022-07-17T10:31:56;6.00;;;2.93;;
9076;SDS011;4574;51.072;17.174;2022-07-17T10:34:39;4.43;;;1.20;;
9076;SDS011;4574;51.072;17.174;2022-07-17T10:37:22;4.20;;;1.87;;
9076;SDS011;4574;51.072;17.174;2022-07-17T10:39:54;6.23;;;1.50;;
9076;SDS011;4574;51.072;17.174;2022-07-17T10:42:41;10.63;;;1.97;;
9076;SDS011;4574;51.072;17.174;2022-07-17T10:45:13;11.67;;;1.63;;
9076;SDS011;4574;51.072;17.174;2022-07-17T10:47:44;1.20;;;1.00;;
9076;SDS011;4574;51.072;17.174;2022-07-17T10:50:15;2.57;;;1.37;;
9076;SDS011;4574;51.072;17.174;2022-07-17T10:52:56;7.90;;;5.33;;
9076;SDS011;4574;51.072;17.174;2022-07-17T10:55:29;6.03;;;1.97;;
9076;SDS011;4574;51.072;17.174;2022-07-17T10:57:58;2.60;;;1.13;;
9076;SDS011;4574;51.072;17.174;2022-07-17T11:00:27;5.57;;;1.90;;
9076;SDS011;4574;51.072;17.174;2022-07-17T11:02:56;4.00;;;1.20;;
9076;SDS011;4574;51.072;17.174;2022-07-17T11:05:24;6.83;;;2.37;;
9076;SDS011;4574;51.072;17.174;2022-07-17T11:07:54;2.00;;;1.20;;
9076;SDS011;4574;51.072;17.174;2022-07-17T11:10:31;2.57;;;1.33;;
9076;SDS011;4574;51.072;17.174;2022-07-17T11:13:09;2.50;;;1.27;;
9076;SDS011;4574;51.072;17.174;2022-07-17T11:15:40;6.83;;;1.80;;
9076;SDS011;4574;51.072;17.174;2022-07-17T11:18:10;4.97;;;1.20;;
9076;SDS011;4574;51.072;17.174;2022-07-17T11:20:50;4.30;;;1.30;;
9076;SDS011;4574;51.072;17.174;2022-07-17T11:23:23;5.57;;;1.43;;
9076;SDS011;4574;51.072;17.174;2022-07-17T11:25:54;2.73;;;1.20;;
9076;SDS011;4574;51.072;17.174;2022-07-17T11:28:31;5.13;;;1.40;;
9076;SDS011;4574;51.072;17.174;2022-07-17T11:31:02;8.13;;;1.30;;
9076;SDS011;4574;51.072;17.174;2022-07-17T11:33:32;2.60;;;1.03;;
9076;SDS011;4574;51.072;17.174;2022-07-17T11:36:01;4.60;;;1.70;;
9076;SDS011;4574;51.072;17.174;2022-07-17T11:38:31;2.83;;;1.27;;
9076;SDS011;4574;51.072;17.174;2022-07-17T11:41:00;2.77;;;1.13;;
9076;SDS011;4574;51.072;17.174;2022-07-17T11:43:38;2.80;;;1.03;;
9076;SDS011;4574;51.072;17.174;2022-07-17T11:46:08;2.70;;;1.03;;
9076;SDS011;4574;51.072;17.174;2022-07-17T11:48:36;6.43;;;1.13;;
9076;SDS011;4574;51.072;17.174;2022-07-17T11:51:08;2.73;;;1.33;;
9076;SDS011;4574;51.072;17.174;2022-07-17T11:53:39;2.50;;;1.30;;
9076;SDS011;4574;51.072;17.174;2022-07-17T11:56:08;4.87;;;1.70;;
9076;SDS011;4574;51.072;17.174;2022-07-17T11:58:48;4.57;;;1.13;;
9076;SDS011;4574;51.072;17.174;2022-07-17T12:01:16;3.93;;;1.17;;
9076;SDS011;4574;51.072;17.174;2022-07-17T12:03:45;4.63;;;1.50;;
9076;SDS011;4574;51.072;17.174;2022-07-17T12:06:24;2.10;;;1.03;;
9076;SDS011;4574;51.072;17.174;2022-07-17T12:08:55;2.37;;;1.20;;
9076;SDS011;4574;51.072;17.174;2022-07-17T12:11:24;3.90;;;1.20;;
9076;SDS011;4574;51.072;17.174;2022-07-17T12:13:53;5.53;;;1.10;;
9076;SDS011;4574;51.072;17.174;2022-07-17T12:16:25;2.90;;;1.00;;
9076;SDS011;4574;51.072;17.174;2022-07-17T12:19:01;7.00;;;1.53;;
9076;SDS011;4574;51.072;17.174;2022-07-17T12:24:24;3.10;;;1.10;;
9076;SDS011;4574;51.072;17.174;2022-07-17T12:26:55;3.70;;;1.37;;
9076;SDS011;4574;51.072;17.174;2022-07-17T12:29:25;2.93;;;1.03;;
9076;SDS011;4574;51.072;17.174;2022-07-17T12:32:05;4.37;;;1.27;;
9076;SDS011;4574;51.072;17.174;2022-07-17T12:34:36;4.30;;;1.20;;
9076;SDS011;4574;51.072;17.174;2022-07-17T12:37:11;5.27;;;1.10;;
9076;SDS011;4574;51.072;17.174;2022-07-17T12:39:41;1.63;;;0.90;;
9076;SDS011;4574;51.072;17.174;2022-07-17T12:42:10;2.40;;;1.10;;
9076;SDS011;4574;51.072;17.174;2022-07-17T12:44:39;3.17;;;1.10;;
9076;SDS011;4574;51.072;17.174;2022-07-17T12:47:09;2.70;;;1.33;;
9076;SDS011;4574;51.072;17.174;2022-07-17T12:49:38;2.63;;;1.17;;
9076;SDS011;4574;51.072;17.174;2022-07-17T12:52:08;3.57;;;1.30;;
9076;SDS011;4574;51.072;17.174;2022-07-17T12:54:36;3.20;;;1.07;;
9076;SDS011;4574;51.072;17.174;2022-07-17T12:57:06;2.50;;;1.07;;
9076;SDS011;4574;51.072;17.174;2022-07-17T12:59:35;4.27;;;1.50;;
9076;SDS011;4574;51.072;17.174;2022-07-17T13:02:04;2.50;;;1.00;;
9076;SDS011;4574;51.072;17.174;2022-07-17T13:04:32;3.13;;;1.17;;
9076;SDS011;4574;51.072;17.174;2022-07-17T13:07:02;1.93;;;1.30;;
9076;SDS011;4574;51.072;17.174;2022-07-17T13:09:31;3.57;;;0.93;;
9076;SDS011;4574;51.072;17.174;2022-07-17T13:11:59;2.80;;;1.07;;
9076;SDS011;4574;51.072;17.174;2022-07-17T13:14:29;2.60;;;1.00;;
9076;SDS011;4574;51.072;17.174;2022-07-17T13:16:58;5.90;;;1.10;;
9076;SDS011;4574;51.072;17.174;2022-07-17T13:19:27;3.43;;;1.33;;
9076;SDS011;4574;51.072;17.174;2022-07-17T13:21:56;3.03;;;1.30;;
9076;SDS011;4574;51.072;17.174;2022-07-17T13:24:24;6.50;;;1.30;;
9076;SDS011;4574;51.072;17.174;2022-07-17T13:26:54;3.87;;;1.17;;
9076;SDS011;4574;51.072;17.174;2022-07-17T13:29:22;2.17;;;1.00;;
9076;SDS011;4574;51.072;17.174;2022-07-17T13:31:54;3.07;;;1.17;;
9076;SDS011;4574;51.072;17.174;2022-07-17T13:34:23;2.43;;;1.00;;
9076;SDS011;4574;51.072;17.174;2022-07-17T13:36:52;2.73;;;1.00;;
9076;SDS011;4574;51.072;17.174;2022-07-17T13:39:20;3.23;;;1.17;;
9076;SDS011;4574;51.072;17.174;2022-07-17T13:41:49;2.83;;;1.37;;
9076;SDS011;4574;51.072;17.174;2022-07-17T13:44:18;4.07;;;0.90;;
9076;SDS011;4574;51.072;17.174;2022-07-17T13:46:47;2.87;;;1.23;;
9076;SDS011;4574;51.072;17.174;2022-07-17T13:49:17;2.47;;;1.23;;
9076;SDS011;4574;51.072;17.174;2022-07-17T13:51:46;3.07;;;1.07;;
9076;SDS011;4574;51.072;17.174;2022-07-17T13:54:15;1.43;;;0.80;;
9076;SDS011;4574;51.072;17.174;2022-07-17T13:56:44;1.83;;;0.77;;
9076;SDS011;4574;51.072;17.174;2022-07-17T13:59:15;1.30;;;0.83;;
9076;SDS011;4574;51.072;17.174;2022-07-17T14:01:44;2.23;;;1.00;;
9076;SDS011;4574;51.072;17.174;2022-07-17T14:04:13;2.20;;;0.93;;
9076;SDS011;4574;51.072;17.174;2022-07-17T14:06:43;1.23;;;0.73;;
9076;SDS011;4574;51.072;17.174;2022-07-17T14:09:12;1.47;;;0.90;;
9076;SDS011;4574;51.072;17.174;2022-07-17T14:11:42;1.73;;;0.90;;
9076;SDS011;4574;51.072;17.174;2022-07-17T14:14:11;1.30;;;1.00;;
9076;SDS011;4574;51.072;17.174;2022-07-17T14:16:40;3.87;;;1.10;;
9076;SDS011;4574;51.072;17.174;2022-07-17T14:19:09;4.13;;;1.00;;
9076;SDS011;4574;51.072;17.174;2022-07-17T14:21:37;3.17;;;1.80;;
9076;SDS011;4574;51.072;17.174;2022-07-17T14:24:07;2.93;;;1.53;;
9076;SDS011;4574;51.072;17.174;2022-07-17T14:26:36;3.43;;;1.73;;
9076;SDS011;4574;51.072;17.174;2022-07-17T14:29:05;1.57;;;1.30;;
9076;SDS011;4574;51.072;17.174;2022-07-17T14:31:34;2.80;;;1.07;;
9076;SDS011;4574;51.072;17.174;2022-07-17T14:34:09;2.27;;;1.00;;
9076;SDS011;4574;51.072;17.174;2022-07-17T14:36:38;1.90;;;1.10;;
9076;SDS011;4574;51.072;17.174;2022-07-17T14:39:08;2.10;;;1.10;;
9076;SDS011;4574;51.072;17.174;2022-07-17T14:41:37;2.23;;;1.20;;
9076;SDS011;4574;51.072;17.174;2022-07-17T14:44:06;2.93;;;1.00;;
9076;SDS011;4574;51.072;17.174;2022-07-17T14:46:34;2.50;;;1.10;;
9076;SDS011;4574;51.072;17.174;2022-07-17T14:49:03;4.10;;;1.10;;
9076;SDS011;4574;51.072;17.174;2022-07-17T14:51:32;2.87;;;1.00;;
9076;SDS011;4574;51.072;17.174;2022-07-17T14:54:01;3.23;;;1.27;;
9076;SDS011;4574;51.072;17.174;2022-07-17T14:56:31;2.40;;;0.83;;
9076;SDS011;4574;51.072;17.174;2022-07-17T14:58:59;2.33;;;1.13;;
9076;SDS011;4574;51.072;17.174;2022-07-17T15:01:28;3.93;;;1.27;;
9076;SDS011;4574;51.072;17.174;2022-07-17T15:03:58;3.67;;;1.20;;
9076;SDS011;4574;51.072;17.174;2022-07-17T15:06:27;4.07;;;1.20;;
9076;SDS011;4574;51.072;17.174;2022-07-17T15:08:57;2.37;;;1.00;;
9076;SDS011;4574;51.072;17.174;2022-07-17T15:11:25;2.20;;;1.30;;
9076;SDS011;4574;51.072;17.174;2022-07-17T15:13:56;2.97;;;1.30;;
9076;SDS011;4574;51.072;17.174;2022-07-17T15:16:26;6.23;;;1.40;;